Time;durP1;ratioP1;P1;durP2;ratioP2;P2;SDS_P1;SDS_P2;PMS_P1;PMS_P2;Temp;Humidity;BMP_temperature;BMP_pressure;BME280_temperature;BME280_humidity;BME280_pressure;Samples;Min_cycle;Max_cycle;Signal;HPM_P1;HPM_P2
2023/05/03 00:03:43;;;;;;;;;;;;;;;;;;;;;
2023/05/03 00:08:10;;;;;;;16.70;6.60;;;;;;;10.55;69.12;101022.86;134115;1298;23186;-76
2023/05/03 00:11:12;;;;;;;12.90;5.00;;;;;;;10.49;69.14;101023.58;133885;1299;22430;-76
2023/05/03 00:15:02;;;;;;;8.40;4.60;;;;;;;10.46;69.11;101022.30;134107;1305;22213;-76
2023/05/03 00:18:22;;;;;;;8.70;4.60;;;;;;;10.41;68.74;101017.49;134055;1304;23481;-75
2023/05/03 00:22:17;;;;;;;;;;;;;;;;;;;;;
2023/05/03 00:25:47;;;;;;;;;;;;;;;;;;;;;
2023/05/03 00:33:12;;;;;;;10.40;4.40;;;;;;;10.12;67.68;101025.08;134018;1298;22161;-77
2023/05/03 00:40:29;;;;;;;8.50;4.40;;;;;;;10.00;67.72;101026.66;134056;1298;22463;-76
2023/05/03 00:43:56;;;;;;;11.20;4.30;;;;;;;9.96;67.58;101027.30;134209;1298;22509;-76
2023/05/03 00:47:48;;;;;;;;;;;;;;;;;;;;;
2023/05/03 00:51:13;;;;;;;14.10;4.40;;;;;;;9.88;67.78;101034.16;134157;1301;22380;-76
2023/05/03 00:55:24;;;;;;;11.20;5.00;;;;;;;9.85;67.90;101035.26;134227;1298;22263;-75
2023/05/03 00:58:43;;;;;;;;;;;;;;;;;;;;;
2023/05/03 01:02:24;;;;;;;9.00;4.00;;;;;;;9.79;67.85;101039.19;134208;1301;22143;-76
2023/05/03 01:10:43;;;;;;;9.80;4.70;;;;;;;9.72;68.40;101039.97;134031;1299;22247;-75
2023/05/03 01:18:50;;;;;;;;;;;;;;;;;;;;;
2023/05/03 01:22:37;;;;;;;12.00;4.70;;;;;;;9.61;68.91;101044.86;134223;1302;22230;-75
2023/05/03 01:25:40;;;;;;;12.60;5.20;;;;;;;9.58;69.01;101045.14;134221;1298;22342;-76
2023/05/03 01:34:28;;;;;;;12.70;5.40;;;;;;;9.52;69.07;101051.16;134140;1298;22320;-75
2023/05/03 01:37:38;;;;;;;14.10;5.10;;;;;;;9.48;69.18;101053.73;134102;1305;22824;-76
2023/05/03 01:41:27;;;;;;;11.60;5.30;;;;;;;9.45;69.26;101059.90;134210;1302;23075;-76
2023/05/03 01:49:07;;;;;;;;;;;;;;;9.40;69.36;101064.21;134027;1298;22498;-76
2023/05/03 01:52:51;;;;;;;;;;;;;;;;;;;;;
2023/05/03 01:55:57;;;;;;;11.90;5.30;;;;;;;9.34;69.54;101066.36;134150;1299;23038;-76
2023/05/03 02:00:14;;;;;;;11.90;5.10;;;;;;;9.33;69.41;101070.21;134081;1299;22447;-77
2023/05/03 02:03:46;;;;;;;13.00;5.20;;;;;;;9.29;69.73;101070.73;134164;1305;22446;-77
2023/05/03 02:07:43;;;;;;;15.80;5.20;;;;;;;9.24;69.53;101069.20;134105;1305;22441;-76
2023/05/03 02:15:49;;;;;;;9.40;5.40;;;;;;;9.19;69.56;101078.45;133951;1301;23138;-77
2023/05/03 02:19:31;;;;;;;15.60;5.90;;;;;;;9.14;69.60;101080.48;134186;1299;22242;-75
2023/05/03 02:22:41;;;;;;;10.60;5.10;;;;;;;9.09;69.53;101080.05;134063;1297;22428;-76
2023/05/03 02:26:05;;;;;;;11.80;6.20;;;;;;;9.05;69.58;101074.25;134198;1305;22859;-76
2023/05/03 02:30:27;;;;;;;12.50;4.90;;;;;;;9.00;69.68;101085.21;134049;1297;23161;-76
2023/05/03 02:38:03;;;;;;;12.00;5.80;;;;;;;8.94;69.69;101084.16;133935;1305;22469;-76
2023/05/03 02:41:58;;;;;;;;;;;;;;;;;;;;;
2023/05/03 02:45:39;;;;;;;12.60;5.30;;;;;;;8.90;69.76;101087.14;134088;1305;22213;-76
2023/05/03 02:53:50;;;;;;;14.50;5.70;;;;;;;8.80;69.75;101094.34;134162;1305;22368;-76
2023/05/03 02:56:51;;;;;;;12.80;5.30;;;;;;;8.75;69.76;101100.41;134045;1301;22389;-76
2023/05/03 02:59:55;;;;;;;11.60;4.50;;;;;;;8.69;69.66;101102.85;134235;1305;22209;-76
2023/05/03 03:03:01;;;;;;;14.00;5.40;;;;;;;8.61;69.53;101099.66;134221;1305;22896;-77
2023/05/03 03:06:45;;;;;;;;;;;;;;;;;;;;;
2023/05/03 03:10:36;;;;;;;10.70;5.00;;;;;;;8.45;69.47;101103.85;133861;1301;22499;-76
2023/05/03 03:14:37;;;;;;;10.30;5.00;;;;;;;8.37;69.48;101109.45;134223;1298;22227;-76
2023/05/03 03:18:11;;;;;;;10.90;4.90;;;;;;;8.32;69.63;101118.63;134099;1305;22426;-75
2023/05/03 03:21:15;;;;;;;10.00;4.70;;;;;;;8.27;69.65;101116.75;134121;1299;22451;-76
2023/05/03 03:24:22;;;;;;;10.60;4.70;;;;;;;8.23;69.59;101117.10;134108;1299;22476;-76
2023/05/03 03:27:37;;;;;;;;;;;;;;;;;;;;;
2023/05/03 03:39:04;;;;;;;12.90;5.20;;;;;;;7.95;69.68;101120.88;133980;1302;22443;-76
2023/05/03 03:43:05;;;;;;;;;;;;;;;;;;;;;
2023/05/03 03:47:21;;;;;;;10.60;4.80;;;;;;;7.78;69.77;101120.48;133680;1298;22467;-76
2023/05/03 03:58:50;;;;;;;14.10;5.50;;;;;;;7.75;70.00;101132.31;133990;1298;22351;-76
2023/05/03 04:06:40;;;;;;;9.50;4.60;;;;;;;7.88;69.78;101140.23;133957;1298;22328;-76
2023/05/03 04:09:47;;;;;;;12.00;4.60;;;;;;;8.01;69.95;101142.40;134039;1298;22360;-76
2023/05/03 04:13:19;;;;;;;11.50;4.60;;;;;;;8.22;69.90;101144.68;134082;1300;22297;-76
2023/05/03 04:20:56;;;;;;;14.50;4.90;;;;;;;8.36;69.20;101149.00;134074;1301;22250;-76
2023/05/03 04:36:52;;;;;;;11.60;5.40;;;;;;;8.30;69.23;101161.80;133955;1305;22379;-76
2023/05/03 04:41:28;;;;;;;14.30;6.50;;;;;;;8.79;69.01;101161.14;134200;1305;22929;-76
2023/05/03 04:49:19;;;;;;;;;;;;;;;;;;;;;
2023/05/03 04:53:20;;;;;;;;;;;;;;;;;;;;;
2023/05/03 04:56:53;;;;;;;;;;;;;;;;;;;;;
2023/05/03 05:00:43;;;;;;;;;;;;;;;;;;;;;
2023/05/03 05:04:06;;;;;;;12.70;5.00;;;;;;;10.84;65.27;101179.40;133959;1297;23808;-76
2023/05/03 05:08:06;;;;;;;;;;;;;;;;;;;;;
2023/05/03 05:12:09;;;;;;;13.10;5.10;;;;;;;11.23;63.92;101183.33;134024;1298;22405;-76
2023/05/03 05:15:38;;;;;;;13.60;5.30;;;;;;;11.43;63.73;101187.52;134171;1305;22217;-76
2023/05/03 05:19:32;;;;;;;13.00;4.60;;;;;;;11.74;63.60;101197.93;134199;1302;22370;-76
2023/05/03 05:22:32;;;;;;;12.40;5.30;;;;;;;12.03;62.98;101205.50;133971;1304;22253;-77
2023/05/03 05:26:03;;;;;;;11.40;5.30;;;;;;;12.23;62.47;101202.79;134106;1298;22509;-78
2023/05/03 05:38:40;;;;;;;;;;;;;;;;;;;;;
2023/05/03 05:45:37;;;;;;;;;;;;;;;;;;;;;
2023/05/03 05:49:11;;;;;;;;;;;;;;;;;;;;;
2023/05/03 05:53:26;;;;;;;13.60;4.90;;;;;;;11.85;61.76;101225.52;133900;1297;23069;-77
2023/05/03 05:56:44;;;;;;;16.80;5.90;;;;;;;11.83;60.74;101232.54;134197;1297;22450;-77
2023/05/03 06:04:50;;;;;;;11.10;4.80;;;;;;;11.38;60.34;101239.48;134021;1297;22357;-77
2023/05/03 06:08:38;;;;;;;11.30;5.60;;;;;;;11.42;60.99;101245.14;134180;1297;22366;-77
2023/05/03 06:11:38;;;;;;;13.80;5.30;;;;;;;11.49;60.96;101250.01;134170;1298;22245;-77
2023/05/03 06:18:42;;;;;;;9.50;4.90;;;;;;;11.26;60.99;101254.46;134014;1298;23105;-77
2023/05/03 06:21:43;;;;;;;15.90;5.60;;;;;;;10.94;60.88;101260.77;134146;1297;22162;-77
2023/05/03 06:24:45;;;;;;;16.60;6.20;;;;;;;10.97;61.44;101262.65;134187;1297;23164;-77
2023/05/03 06:27:46;;;;;;;15.90;5.30;;;;;;;11.46;61.81;101261.65;134197;1297;22445;-77
2023/05/03 06:30:59;;;;;;;14.70;5.00;;;;;;;11.91;61.34;101264.99;134056;1298;22443;-79
2023/05/03 06:35:02;;;;;;;;;;;;;;;;;;;;;
2023/05/03 06:38:44;;;;;;;10.60;5.40;;;;;;;12.28;60.43;101275.23;134022;1297;23376;-78
2023/05/03 06:42:14;;;;;;;;;;;;;;;;;;;;;
2023/05/03 06:45:45;;;;;;;;;;;;;;;;;;;;;
2023/05/03 06:49:37;;;;;;;7.50;4.90;;;;;;;13.12;59.72;101274.03;134107;1304;22485;-86
2023/05/03 06:53:45;;;;;;;;;;;;;;;;;;;;;
2023/05/03 06:57:47;;;;;;;;;;;;;;;;;;;;;
2023/05/03 07:00:57;;;;;;;9.10;4.80;;;;;;;14.23;56.99;101276.92;134113;1297;22547;-74
2023/05/03 07:05:22;;;;;;;8.50;4.40;;;;;;;14.70;57.23;101275.31;134176;1297;22394;-75
2023/05/03 07:18:01;;;;;;;8.40;4.30;;;;;;;16.54;53.88;101268.36;133953;1297;22431;-75
2023/05/03 07:22:03;;;;;;;;;;;;;;;;;;;;;
2023/05/03 07:26:49;;;;;;;9.80;3.60;;;;;;;16.98;50.59;101259.24;134101;1298;23448;-74
2023/05/03 07:30:00;;;;;;;;;;;;;;;;;;;;;
2023/05/03 07:38:05;;;;;;;11.20;3.50;;;;;;;14.99;47.92;101264.36;134013;1297;23073;-73
2023/05/03 07:41:05;;;;;;;6.50;2.70;;;;;;;14.74;49.80;101259.39;133845;1297;22170;-78
2023/05/03 07:44:33;;;;;;;;;;;;;;;;;;;;;
2023/05/03 08:02:18;;;;;;;6.30;2.70;;;;;;;13.80;47.67;101268.81;134139;1298;22448;-76
2023/05/03 08:06:08;;;;;;;;;;;;;;;;;;;;;
2023/05/03 08:13:58;;;;;;;5.90;3.00;;;;;;;12.82;47.79;101274.85;134148;1297;22497;-73
2023/05/03 08:17:02;;;;;;;6.80;2.90;;;;;;;12.73;47.56;101275.98;134173;1297;22377;-68
2023/05/03 08:20:48;;;;;;;7.90;2.90;;;;;;;12.79;47.96;101275.49;134172;1297;24794;-71
2023/05/03 08:23:47;;;;;;;8.50;3.70;;;;;;;13.16;48.57;101268.43;134198;1297;22429;-72
2023/05/03 08:26:54;;;;;;;6.10;3.10;;;;;;;13.88;47.76;101263.19;134160;1298;22386;-73
2023/05/03 08:30:28;;;;;;;;;;;;;;;;;;;;;
2023/05/03 08:33:57;;;;;;;;;;;;;;;;;;;;;
2023/05/03 08:38:00;;;;;;;6.10;3.70;;;;;;;14.08;46.66;101272.08;134156;1305;22462;-77
2023/05/03 08:41:23;;;;;;;7.20;3.10;;;;;;;14.05;47.20;101275.61;133927;1298;22188;-75
2023/05/03 08:44:52;;;;;;;5.40;2.60;;;;;;;13.95;46.89;101277.60;134181;1298;23190;-75
2023/05/03 08:48:16;;;;;;;6.40;2.80;;;;;;;13.71;46.61;101281.09;134198;1297;22259;-75
2023/05/03 08:51:17;;;;;;;7.60;3.40;;;;;;;13.49;46.79;101284.44;134072;1299;22391;-74
2023/05/03 08:54:23;;;;;;;7.50;3.80;;;;;;;13.36;47.09;101285.08;134054;1298;22344;-75
2023/05/03 08:58:03;;;;;;;7.80;3.30;;;;;;;13.40;47.24;101286.77;134202;1298;22444;-75
2023/05/03 09:01:20;;;;;;;;;;;;;;;;;;;;;
2023/05/03 09:04:44;;;;;;;6.10;3.00;;;;;;;13.73;47.31;101283.23;134216;1298;22405;-75
2023/05/03 09:08:39;;;;;;;;;;;;;;;;;;;;;
2023/05/03 09:17:18;;;;;;;;;;;;;;;;;;;;;
2023/05/03 09:20:38;;;;;;;6.40;3.00;;;;;;;14.45;46.10;101279.42;133930;1297;22352;-75
2023/05/03 09:29:13;;;;;;;4.50;3.30;;;;;;;14.77;45.33;101279.91;133985;1297;22374;-76
2023/05/03 09:33:07;;;;;;;6.10;2.70;;;;;;;14.68;44.71;101276.63;133874;1298;22257;-75
2023/05/03 09:41:04;;;;;;;;;;;;;;;;;;;;;
2023/05/03 09:45:22;;;;;;;;;;;;;;;;;;;;;
2023/05/03 09:48:55;;;;;;;;;;;;;;;;;;;;;
2023/05/03 09:53:03;;;;;;;;;;;;;;;;;;;;;
2023/05/03 09:56:25;;;;;;;5.70;2.80;;;;;;;15.29;44.11;101269.98;134014;1298;22384;-79
2023/05/03 10:04:31;;;;;;;4.00;2.40;;;;;;;15.00;43.98;101271.06;133901;1298;22227;-79
2023/05/03 10:09:01;;;;;;;6.50;2.70;;;;;;;15.37;43.85;101265.91;133614;1307;22213;-78
2023/05/03 10:12:33;;;;;;;;;;;;;;;;;;;;;
2023/05/03 10:16:20;;;;;;;7.60;2.80;;;;;;;15.08;43.10;101265.14;133424;1301;22444;-79
2023/05/03 10:20:03;;;;;;;6.30;3.00;;;;;;;14.89;43.06;101257.63;133590;1301;22450;-79
2023/05/03 10:23:29;;;;;;;9.90;3.40;;;;;;;14.73;42.91;101259.70;133609;1307;23067;-79
2023/05/03 10:32:12;;;;;;;7.10;3.00;;;;;;;14.34;42.92;101261.68;133521;1301;22436;-79
2023/05/03 10:35:18;;;;;;;6.50;3.10;;;;;;;14.36;43.20;101259.54;133530;1302;22379;-79
2023/05/03 10:43:59;;;;;;;;;;;;;;;;;;;;;
2023/05/03 10:47:48;;;;;;;8.10;3.40;;;;;;;15.51;42.55;101253.64;134069;1297;22384;-81
2023/05/03 10:50:50;;;;;;;6.80;3.10;;;;;;;15.24;42.00;101251.29;134130;1297;23245;-79
2023/05/03 10:55:11;;;;;;;7.40;3.10;;;;;;;15.00;42.25;101255.35;134169;1297;22396;-80
2023/05/03 10:59:27;;;;;;;7.20;2.60;;;;;;;14.99;42.23;101254.39;134148;1297;22191;-86
2023/05/03 11:07:28;;;;;;;;;;;;;;;;;;;;;
2023/05/03 11:11:40;;;;;;;8.50;3.80;;;;;;;15.29;42.02;101252.48;134153;1301;22390;-81
2023/05/03 11:15:42;;;;;;;;;;;;;;;;;;;;;
2023/05/03 11:27:12;;;;;;;;;;;;;;;;;;;;;
2023/05/03 11:31:01;;;;;;;;;;;;;;;;;;;;;
2023/05/03 11:35:49;;;;;;;12.20;3.60;;;;;;;14.86;41.80;101254.95;134207;1304;22959;-77
2023/05/03 11:39:25;;;;;;;9.40;3.50;;;;;;;15.34;42.85;101251.09;134116;1298;22468;-78
2023/05/03 11:55:49;;;;;;;;;;;;;;;;;;;;;
2023/05/03 11:59:20;;;;;;;6.50;3.10;;;;;;;16.35;40.93;101241.02;134097;1300;22431;-88
2023/05/03 12:03:23;;;;;;;;;;;;;;;;;;;;;
2023/05/03 12:06:51;;;;;;;;;;;;;;;;;;;;;
2023/05/03 12:10:14;;;;;;;7.50;3.20;;;;;;;16.55;39.44;101240.94;134184;1298;22395;-81
2023/05/03 12:13:28;;;;;;;6.90;2.90;;;;;;;16.40;39.56;101238.27;134084;1298;23144;-81
2023/05/03 12:16:51;;;;;;;5.20;3.00;;;;;;;16.27;39.42;101237.90;133822;1301;23274;-81
2023/05/03 12:19:54;;;;;;;6.20;3.00;;;;;;;16.06;39.37;101242.11;133714;1300;23411;-82
2023/05/03 12:23:00;;;;;;;12.30;5.60;;;;;;;15.87;39.65;101241.41;133864;1301;22212;-81
2023/05/03 12:26:09;;;;;;;8.20;3.10;;;;;;;15.90;39.78;101240.14;133754;1301;23308;-78
2023/05/03 12:29:19;;;;;;;5.10;3.00;;;;;;;16.10;39.39;101237.00;133831;1301;22374;-76
2023/05/03 12:33:07;;;;;;;;;;;;;;;;;;;;;
2023/05/03 12:36:23;;;;;;;7.20;2.90;;;;;;;16.59;39.59;101235.98;133827;1304;22400;-76
2023/05/03 12:40:07;;;;;;;8.60;3.20;;;;;;;16.68;38.94;101233.70;133857;1307;23000;-80
2023/05/03 12:44:14;;;;;;;7.30;2.80;;;;;;;16.64;39.25;101229.12;133843;1301;22501;-77
2023/05/03 12:47:46;;;;;;;4.80;2.70;;;;;;;16.74;39.51;101226.55;133686;1301;22518;-80
2023/05/03 12:51:26;;;;;;;8.50;3.00;;;;;;;16.83;39.18;101216.89;133732;1300;22269;-83
2023/05/03 12:55:37;;;;;;;;;;;;;;;;;;;;;
2023/05/03 12:59:03;;;;;;;8.70;3.20;;;;;;;16.83;38.98;101217.13;134229;1305;22449;-76
2023/05/03 13:02:58;;;;;;;;;;;;;;;;;;;;;
2023/05/03 13:07:23;;;;;;;;;;;;;;;;;;;;;
2023/05/03 13:11:07;;;;;;;;;;;;;;;;;;;;;
2023/05/03 13:14:41;;;;;;;;;;;;;;;;;;;;;
2023/05/03 13:17:51;;;;;;;6.50;3.20;;;;;;;15.92;38.17;101203.73;134211;1303;23269;-81
2023/05/03 13:21:30;;;;;;;;;;;;;;;;;;;;;
2023/05/03 13:25:53;;;;;;;8.10;3.00;;;;;;;15.05;39.10;101199.42;134030;1298;22186;-75
2023/05/03 13:28:40;;;;;;;7.10;3.20;;;;;;;14.63;39.65;101196.14;134158;1297;22175;-77
2023/05/03 13:32:43;;;;;;;9.60;3.30;;;;;;;14.60;40.15;101193.80;134211;1298;22353;-78
2023/05/03 13:35:49;;;;;;;5.90;2.70;;;;;;;14.75;40.05;101195.02;134254;1297;22483;-78
2023/05/03 13:39:01;;;;;;;10.00;4.70;;;;;;;14.70;39.84;101190.61;134036;1297;23239;-77
2023/05/03 13:42:08;;;;;;;12.90;5.40;;;;;;;14.63;40.51;101182.83;134214;1301;22415;-78
2023/05/03 13:45:13;;;;;;;11.60;4.10;;;;;;;14.73;40.75;101183.63;134227;1297;22574;-78
2023/05/03 13:48:45;;;;;;;;;;;;;;;;;;;;;
2023/05/03 13:52:10;;;;;;;5.40;2.70;;;;;;;15.16;40.87;101175.39;134225;1297;22503;-78
2023/05/03 13:55:14;;;;;;;7.10;3.30;;;;;;;15.30;40.79;101170.98;134231;1297;23007;-77
2023/05/03 13:58:38;;;;;;;7.00;3.00;;;;;;;15.42;40.71;101170.79;134139;1300;22528;-78
2023/05/03 14:01:52;;;;;;;;;;;;;;;;;;;;;
2023/05/03 14:05:42;;;;;;;;;;;;;;;;;;;;;
2023/05/03 14:09:03;;;;;;;5.80;3.70;;;;;;;15.48;39.58;101169.45;134100;1297;22356;-78
2023/05/03 14:12:09;;;;;;;5.70;3.00;;;;;;;15.49;39.66;101167.52;134083;1298;23102;-78
2023/05/03 14:15:18;;;;;;;6.00;2.90;;;;;;;15.58;39.92;101161.73;134221;1297;23053;-78
2023/05/03 14:18:43;;;;;;;7.20;3.00;;;;;;;15.67;39.89;101158.39;134128;1299;22177;-78
2023/05/03 14:26:10;;;;;;;11.20;3.70;;;;;;;15.84;39.59;101162.91;133938;1298;22371;-78
2023/05/03 14:29:46;;;;;;;;;;;;;;;;;;;;;
2023/05/03 14:33:22;;;;;;;5.80;3.20;;;;;;;15.94;39.18;101164.25;134212;1297;22476;-78
2023/05/03 14:37:11;;;;;;;7.50;4.20;;;;;;;15.75;38.70;101165.48;134133;1298;25819;-78
2023/05/03 14:40:56;;;;;;;9.10;3.00;;;;;;;15.65;39.41;101158.59;133850;1298;22429;-78
2023/05/03 14:44:55;;;;;;;6.80;3.20;;;;;;;15.75;39.45;101156.02;133952;1298;22936;-78
2023/05/03 14:47:56;;;;;;;5.80;3.50;;;;;;;15.84;39.42;101159.32;133955;1298;22516;-78
2023/05/03 14:51:20;;;;;;;4.00;2.50;;;;;;;15.87;39.31;101161.98;134222;1297;23272;-77
2023/05/03 14:55:02;;;;;;;;;;;;;;;;;;;;;
2023/05/03 14:58:36;;;;;;;9.70;3.20;;;;;;;15.54;38.69;101165.73;133956;1298;22492;-77
2023/05/03 15:02:17;;;;;;;;;;;;;;;;;;;;;
2023/05/03 15:06:02;;;;;;;;;;;;;;;;;;;;;
2023/05/03 15:10:02;;;;;;;8.60;3.10;;;;;;;15.16;39.39;101166.09;134225;1297;23144;-78
2023/05/03 15:13:47;;;;;;;;;;;;;;;;;;;;;
2023/05/03 15:17:25;;;;;;;6.60;3.10;;;;;;;15.14;39.44;101159.04;134058;1297;23839;-77
2023/05/03 15:21:31;;;;;;;8.90;3.60;;;;;;;15.01;39.40;101163.78;134117;1305;22849;-77
2023/05/03 15:25:21;;;;;;;7.30;2.80;;;;;;;14.95;39.62;101166.44;134057;1302;22428;-77
2023/05/03 15:28:17;;;;;;;8.40;2.90;;;;;;;14.96;39.42;101164.73;134184;1298;22387;-77
2023/05/03 15:31:51;;;;;;;;;;;;;;;;;;;;;
2023/05/03 15:39:06;;;;;;;7.10;3.00;;;;;;;14.98;39.78;101159.21;134053;1298;22242;-77
2023/05/03 15:42:07;;;;;;;6.90;3.30;;;;;;;15.00;39.79;101162.15;134232;1297;22351;-77
2023/05/03 15:45:21;;;;;;;7.30;3.30;;;;;;;14.98;40.02;101166.64;134220;1297;22371;-77
2023/05/03 15:48:26;;;;;;;5.40;4.00;;;;;;;14.92;40.11;101160.06;134239;1298;23077;-77
2023/05/03 15:52:10;;;;;;;;;;;;;;;;;;;;;
2023/05/03 15:55:51;;;;;;;10.60;7.20;;;;;;;14.84;39.94;101165.05;134089;1298;22372;-77
2023/05/03 15:59:20;;;;;;;11.00;5.10;;;;;;;14.73;39.98;101167.98;134203;1305;22248;-77
2023/05/03 16:02:53;;;;;;;;;;;;;;;;;;;;;
2023/05/03 16:06:08;;;;;;;8.20;2.70;;;;;;;14.47;39.70;101171.18;134180;1298;22891;-77
2023/05/03 16:09:14;;;;;;;8.40;4.30;;;;;;;14.37;39.81;101171.17;134083;1298;23016;-77
2023/05/03 16:13:02;;;;;;;;;;;;;;;;;;;;;
2023/05/03 16:16:44;;;;;;;9.30;3.50;;;;;;;14.12;40.04;101174.35;134040;1298;22442;-77
2023/05/03 16:19:51;;;;;;;8.70;3.50;;;;;;;14.05;40.12;101172.13;134230;1297;22353;-77
2023/05/03 16:23:51;;;;;;;5.50;2.60;;;;;;;14.04;40.21;101172.02;134200;1298;22441;-77
2023/05/03 16:27:36;;;;;;;7.70;3.00;;;;;;;14.03;39.99;101171.27;134191;1298;22398;-77
2023/05/03 16:30:53;;;;;;;10.20;3.00;;;;;;;14.02;40.32;101172.25;134185;1297;22277;-77
2023/05/03 16:34:07;;;;;;;13.10;5.60;;;;;;;14.03;40.29;101172.47;134228;1298;22431;-77
2023/05/03 16:37:43;;;;;;;;;;;;;;;;;;;;;
2023/05/03 16:41:07;;;;;;;7.20;4.30;;;;;;;13.96;40.57;101173.78;134198;1298;22176;-77
2023/05/03 16:44:21;;;;;;;7.40;3.20;;;;;;;13.95;40.71;101173.77;134199;1297;22450;-77
2023/05/03 16:47:22;;;;;;;7.50;3.20;;;;;;;13.94;40.63;101172.41;134270;1297;22234;-77
2023/05/03 16:50:23;;;;;;;8.40;3.60;;;;;;;13.90;40.53;101172.80;134244;1298;22513;-77
2023/05/03 16:53:38;;;;;;;9.00;2.80;;;;;;;13.83;40.40;101170.92;134247;1298;22417;-77
2023/05/03 16:56:42;;;;;;;6.90;3.10;;;;;;;13.77;40.50;101170.86;134247;1298;23001;-77
2023/05/03 16:59:47;;;;;;;6.20;3.20;;;;;;;13.73;40.55;101173.55;134230;1305;23070;-77
2023/05/03 17:02:59;;;;;;;10.10;4.70;;;;;;;13.70;40.66;101173.86;134244;1298;22519;-77
2023/05/03 17:06:00;;;;;;;6.60;2.80;;;;;;;13.66;40.70;101172.98;134222;1298;22226;-77
2023/05/03 17:09:06;;;;;;;14.00;6.70;;;;;;;13.60;41.00;101173.50;134093;1298;22379;-77
2023/05/03 17:12:10;;;;;;;10.90;4.80;;;;;;;13.45;41.18;101173.21;134243;1298;22488;-77
2023/05/03 17:15:35;;;;;;;;;;;;;;;;;;;;;
2023/05/03 17:18:52;;;;;;;8.40;3.30;;;;;;;13.07;41.75;101174.64;134213;1298;22428;-77
2023/05/03 17:21:56;;;;;;;7.00;3.20;;;;;;;12.87;42.27;101177.40;134176;1300;24102;-77
2023/05/03 17:24:57;;;;;;;6.80;3.10;;;;;;;12.72;42.34;101181.08;134199;1298;22380;-77
2023/05/03 17:28:04;;;;;;;5.70;3.20;;;;;;;12.59;42.78;101179.23;134229;1298;23254;-77
2023/05/03 17:32:02;;;;;;;;;;;;;;;;;;;;;
2023/05/03 17:35:09;;;;;;;8.20;3.50;;;;;;;12.39;43.45;101181.89;134211;1298;23074;-77
2023/05/03 17:38:36;;;;;;;;;;;;;;;;;;;;;
2023/05/03 17:42:05;;;;;;;11.40;4.00;;;;;;;12.16;43.93;101179.40;134206;1298;22259;-77
2023/05/03 17:45:07;;;;;;;7.50;3.70;;;;;;;12.07;44.20;101180.08;134075;1299;22935;-77
2023/05/03 17:48:16;;;;;;;5.90;3.50;;;;;;;11.99;44.55;101180.48;134221;1298;22371;-77
2023/05/03 17:51:17;;;;;;;6.20;3.30;;;;;;;11.92;44.68;101180.98;134229;1301;23224;-77
2023/05/03 17:54:18;;;;;;;;;;;;;;;11.84;45.12;101180.20;134232;1303;22467;-77
2023/05/03 17:57:21;;;;;;;6.90;3.30;;;;;;;11.73;45.22;101179.14;134099;1298;22339;-77
2023/05/03 18:00:30;;;;;;;;;;;;;;;11.61;45.30;101179.50;134124;1301;22458;-77
2023/05/03 18:03:35;;;;;;;8.90;5.10;;;;;;;11.48;45.56;101181.66;134097;1298;22469;-77
2023/05/03 18:06:36;;;;;;;9.10;4.60;;;;;;;11.34;45.76;101183.57;134098;1299;22472;-77
2023/05/03 18:09:37;;;;;;;10.10;4.90;;;;;;;11.22;45.92;101185.54;134250;1297;22439;-77
2023/05/03 18:13:00;;;;;;;12.90;5.60;;;;;;;11.12;45.94;101191.14;133923;1298;23104;-77
2023/05/03 18:16:08;;;;;;;14.60;8.90;;;;;;;10.99;45.99;101192.90;134091;1298;22371;-78
2023/05/03 18:19:12;;;;;;;16.10;9.00;;;;;;;10.85;46.17;101193.95;134141;1298;22420;-77
2023/05/03 18:22:13;;;;;;;7.60;4.50;;;;;;;10.76;46.47;101193.76;134095;1298;23683;-77
2023/05/03 18:25:14;;;;;;;15.50;9.70;;;;;;;10.68;46.71;101194.48;134231;1297;22235;-77
2023/05/03 18:28:16;;;;;;;21.20;7.00;;;;;;;10.56;46.88;101196.53;134199;1298;22199;-77
2023/05/03 18:31:29;;;;;;;;;;;;;;;;;;;;;
2023/05/03 18:34:36;;;;;;;12.10;6.40;;;;;;;10.31;47.49;101197.73;134191;1301;22381;-77
2023/05/03 18:37:47;;;;;;;10.00;5.30;;;;;;;10.23;47.60;101199.95;134077;1301;22216;-77
2023/05/03 18:41:01;;;;;;;10.80;6.00;;;;;;;10.16;47.76;101200.59;134251;1298;22441;-77
2023/05/03 18:44:22;;;;;;;10.60;5.60;;;;;;;10.11;47.84;101202.28;134231;1298;22211;-77
2023/05/03 18:47:23;;;;;;;17.20;7.50;;;;;;;10.09;48.09;101208.15;134207;1305;22209;-77
2023/05/03 18:50:24;;;;;;;;;;;;;;;10.08;48.19;101205.02;134220;1298;23247;-77
2023/05/03 18:53:35;;;;;;;19.60;7.90;;;;;;;10.06;48.29;101208.55;134216;1299;22500;-77
2023/05/03 18:56:41;;;;;;;18.90;7.20;;;;;;;10.03;48.39;101212.90;134089;1304;22379;-77
2023/05/03 19:00:01;;;;;;;22.80;8.00;;;;;;;9.97;48.49;101212.56;134214;1298;22403;-77
2023/05/03 19:03:05;;;;;;;16.20;7.40;;;;;;;9.87;48.71;101212.69;134114;1303;22575;-77
2023/05/03 19:06:06;;;;;;;17.70;8.70;;;;;;;9.79;48.89;101213.60;134226;1298;22373;-77
2023/05/03 19:09:12;;;;;;;22.80;9.70;;;;;;;9.72;48.92;101214.06;134106;1298;22424;-77
2023/05/03 19:12:16;;;;;;;26.30;10.10;;;;;;;9.65;49.11;101217.79;134223;1302;22381;-77
2023/05/03 19:15:19;;;;;;;23.30;8.80;;;;;;;9.58;49.16;101220.05;134235;1297;22369;-77
2023/05/03 19:18:30;;;;;;;13.90;4.80;;;;;;;9.51;49.45;101227.59;134208;1305;22171;-76
2023/05/03 19:21:55;;;;;;;8.40;4.40;;;;;;;9.39;49.70;101224.13;134109;1292;23206;-76
2023/05/03 19:25:36;;;;;;;;;;;;;;;;;;;;;
2023/05/03 19:28:43;;;;;;;7.90;4.70;;;;;;;9.27;50.33;101228.02;134174;1298;22248;-77
2023/05/03 19:32:13;;;;;;;9.50;4.90;;;;;;;9.21;50.29;101227.77;134217;1301;23545;-77
2023/05/03 19:35:19;;;;;;;9.10;4.80;;;;;;;9.12;50.52;101233.88;134228;1300;22387;-77
2023/05/03 19:38:23;;;;;;;11.20;5.10;;;;;;;9.04;50.76;101238.06;134100;1305;22512;-77
2023/05/03 19:41:27;;;;;;;20.30;8.20;;;;;;;8.99;51.06;101239.09;134217;1301;22401;-77
2023/05/03 19:44:52;;;;;;;20.00;8.80;;;;;;;8.93;51.36;101243.45;134224;1304;22428;-77
2023/05/03 19:48:09;;;;;;;11.70;6.60;;;;;;;8.85;51.70;101242.63;134224;1299;23100;-77
2023/05/03 19:51:56;;;;;;;;;;;;;;;;;;;;;
2023/05/03 19:55:06;;;;;;;23.10;12.40;;;;;;;8.47;52.45;101241.95;134017;1299;22356;-77
2023/05/03 19:58:33;;;;;;;27.80;14.90;;;;;;;8.36;52.74;101237.88;134087;1305;23074;-77
2023/05/03 20:01:34;;;;;;;30.90;15.00;;;;;;;8.29;53.02;101234.05;134219;1305;22376;-77
2023/05/03 20:05:08;;;;;;;27.90;13.70;;;;;;;8.20;53.17;101232.80;134234;1305;22340;-77
2023/05/03 20:08:16;;;;;;;30.70;13.30;;;;;;;8.13;53.45;101236.02;134185;1298;22237;-77
2023/05/03 20:11:39;;;;;;;23.50;11.50;;;;;;;8.07;53.73;101237.88;134104;1299;22384;-77
2023/05/03 20:15:07;;;;;;;24.50;10.30;;;;;;;7.96;54.11;101231.94;134205;1305;22364;-77
2023/05/03 20:18:16;;;;;;;15.50;9.30;;;;;;;7.82;54.26;101227.20;134138;1298;22231;-76
2023/05/03 20:21:18;;;;;;;16.90;8.60;;;;;;;7.75;54.61;101224.80;134236;1297;22347;-77
2023/05/03 20:24:31;;;;;;;16.20;8.70;;;;;;;7.71;54.63;101225.68;134220;1298;22602;-77
2023/05/03 20:27:53;;;;;;;18.10;9.40;;;;;;;7.57;55.00;101223.17;134239;1297;23108;-77
2023/05/03 20:30:56;;;;;;;21.10;10.00;;;;;;;7.42;55.40;101227.04;134224;1301;22493;-77
2023/05/03 20:34:22;;;;;;;16.30;9.10;;;;;;;7.33;55.48;101228.79;134207;1298;22467;-77
2023/05/03 20:37:25;;;;;;;19.00;9.00;;;;;;;7.23;55.75;101225.73;134083;1298;22434;-77
2023/05/03 20:40:25;;;;;;;;;;;;;;;7.13;56.25;101225.71;134235;1298;22458;-77
2023/05/03 20:43:58;;;;;;;;;;;;;;;;;;;;;
2023/05/03 20:50:57;;;;;;;17.50;10.30;;;;;;;6.91;56.94;101228.95;134156;1298;22880;-76
2023/05/03 20:53:58;;;;;;;15.60;9.10;;;;;;;6.85;57.33;101228.44;134216;1298;22362;-77
2023/05/03 20:57:20;;;;;;;15.70;8.70;;;;;;;6.72;57.43;101230.38;134082;1301;23076;-77
2023/05/03 21:00:37;;;;;;;;;;;;;;;;;;;;;
2023/05/03 21:04:09;;;;;;;15.80;8.70;;;;;;;6.51;58.20;101233.77;134065;1298;22188;-77
2023/05/03 21:07:10;;;;;;;;;;;;;;;6.41;58.42;101230.11;134271;1298;22494;-76
2023/05/03 21:10:15;;;;;;;25.10;11.70;;;;;;;6.35;58.44;101229.14;134238;1298;22511;-77
2023/05/03 21:13:36;;;;;;;20.70;11.40;;;;;;;6.31;58.71;101221.36;134243;1298;22277;-77
2023/05/03 21:16:54;;;;;;;22.10;11.10;;;;;;;6.26;58.70;101223.42;134020;1298;22463;-77
2023/05/03 21:20:40;;;;;;;16.50;10.30;;;;;;;6.18;59.02;101222.95;134257;1297;22356;-77
2023/05/03 21:23:26;;;;;;;22.80;12.70;;;;;;;6.14;59.38;101219.73;134137;1301;22488;-76
2023/05/03 21:26:27;;;;;;;18.20;11.00;;;;;;;6.10;59.61;101219.02;134099;1298;22381;-77
2023/05/03 21:29:28;;;;;;;18.80;10.00;;;;;;;6.00;59.54;101220.73;134236;1297;23090;-77
2023/05/03 21:32:32;;;;;;;29.20;16.20;;;;;;;5.90;59.82;101219.53;134095;1298;22210;-76